createdAt,value
2022-09-26T00:00:22.382Z,9.63
2022-09-26T00:02:25.093Z,11.17
2022-09-26T00:04:32.815Z,10.03
2022-09-26T00:06:37.182Z,11.23
2022-09-26T00:08:40.987Z,8.43
2022-09-26T00:10:44.992Z,11.07
2022-09-26T00:12:47.836Z,10.92
2022-09-26T00:14:50.518Z,5.96
2022-09-26T00:16:53.601Z,9.03
2022-09-26T00:18:58.784Z,10.75
2022-09-26T00:21:05.482Z,10.69
2022-09-26T00:23:08.195Z,10.70
2022-09-26T00:25:11.045Z,10.72
2022-09-26T00:27:15.121Z,10.02
2022-09-26T00:29:17.876Z,10.62
2022-09-26T00:31:23.851Z,10.65
2022-09-26T00:33:26.576Z,10.56
2022-09-26T00:35:29.266Z,10.53
2022-09-26T00:37:31.980Z,4.39
2022-09-26T00:39:34.933Z,10.57
2022-09-26T00:41:37.945Z,10.55
2022-09-26T00:43:44.055Z,10.56
2022-09-26T00:45:46.783Z,10.54
2022-09-26T00:47:58.095Z,10.55
2022-09-26T00:50:05.385Z,10.53
2022-09-26T00:52:11.645Z,10.47
2022-09-26T00:54:18.580Z,10.46
2022-09-26T00:56:24.473Z,10.47
2022-09-26T00:58:32.004Z,10.44
2022-09-26T01:00:37.589Z,10.11
2022-09-26T01:02:40.684Z,9.82
2022-09-26T01:04:46.564Z,9.76
2022-09-26T01:06:50.179Z,5.42
2022-09-26T01:08:57.302Z,9.71
2022-09-26T01:11:00.715Z,9.68
2022-09-26T01:13:04.149Z,10.02
2022-09-26T01:15:09.107Z,9.18
2022-09-26T01:17:13.587Z,10.18
2022-09-26T01:19:26.047Z,7.95
2022-09-26T01:21:54.503Z,10.10
2022-09-26T01:24:39.284Z,9.46
2022-09-26T01:27:18.337Z,9.47
2022-09-26T01:29:56.832Z,9.52
2022-09-26T01:32:28.215Z,6.80
2022-09-26T01:34:40.008Z,9.45
2022-09-26T01:37:03.242Z,9.01
2022-09-26T01:39:23.088Z,9.27
2022-09-26T01:41:37.693Z,4.08
2022-09-26T01:43:48.025Z,9.32
2022-09-26T01:45:55.104Z,9.32
2022-09-26T01:48:07.163Z,9.43
2022-09-26T01:50:20.728Z,9.44
2022-09-26T01:52:32.642Z,9.59
2022-09-26T01:54:38.859Z,9.57
2022-09-26T01:56:44.288Z,9.27
2022-09-26T01:58:52.559Z,9.62
2022-09-26T02:00:59.086Z,7.36
2022-09-26T02:03:06.690Z,9.62
2022-09-26T02:05:17.252Z,7.61
2022-09-26T02:07:25.937Z,9.67
2022-09-26T02:09:34.260Z,5.79
2022-09-26T02:11:42.596Z,9.72
2022-09-26T02:13:52.193Z,5.23
2022-09-26T02:15:58.712Z,9.61
2022-09-26T02:18:09.276Z,9.45
2022-09-26T02:20:16.192Z,9.66
2022-09-26T02:22:22.448Z,9.82
2022-09-26T02:24:25.925Z,9.87
2022-09-26T02:26:30.044Z,9.93
2022-09-26T02:28:35.852Z,10.02
2022-09-26T02:33:29.301Z,10.05
2022-09-26T02:35:50.201Z,10.09
2022-09-26T02:37:53.171Z,8.87
2022-09-26T02:40:01.115Z,10.19
2022-09-26T02:42:19.930Z,10.12
2022-09-26T02:44:42.195Z,9.92
2022-09-26T02:47:12.421Z,10.06
2022-09-26T02:49:40.588Z,9.93
2022-09-26T02:52:02.522Z,9.90
2022-09-26T02:54:22.325Z,9.92
2022-09-26T02:56:30.994Z,8.93
2022-09-26T02:58:47.745Z,9.87
2022-09-26T03:00:59.272Z,9.95
2022-09-26T03:03:08.733Z,9.88
2022-09-26T03:05:17.607Z,9.84
2022-09-26T03:07:25.448Z,8.81
2022-09-26T03:09:31.316Z,9.97
2022-09-26T03:11:35.851Z,1.67
2022-09-26T03:13:41.613Z,10.06
2022-09-26T03:15:51.821Z,10.16
2022-09-26T03:17:59.472Z,9.72
2022-09-26T03:20:11.295Z,9.82
2022-09-26T03:22:18.066Z,10.17
2022-09-26T03:24:20.953Z,9.41
2022-09-26T03:26:25.381Z,10.11
2022-09-26T03:28:36.836Z,9.86
2022-09-26T03:30:40.396Z,10.32
2022-09-26T03:33:06.503Z,10.01
2022-09-26T03:35:10.496Z,9.97
2022-09-26T03:37:13.351Z,10.15
2022-09-26T03:39:17.408Z,10.18
2022-09-26T03:41:46.377Z,6.37
2022-09-26T03:43:51.796Z,10.25
2022-09-26T03:45:55.134Z,10.35
2022-09-26T03:48:02.212Z,10.42
2022-09-26T03:50:06.452Z,10.32
2022-09-26T03:52:11.580Z,10.28
2022-09-26T03:54:15.267Z,10.39
2022-09-26T03:56:21.786Z,10.47
2022-09-26T03:58:25.114Z,10.51
2022-09-26T04:00:28.136Z,9.82
2022-09-26T04:02:30.910Z,10.51
2022-09-26T04:04:48.487Z,10.54
2022-09-26T04:06:51.995Z,8.91
2022-09-26T04:08:55.107Z,10.61
2022-09-26T04:11:04.526Z,9.18
2022-09-26T04:13:08.605Z,10.69
2022-09-26T04:15:12.930Z,10.70
2022-09-26T04:17:15.650Z,9.98
2022-09-26T04:19:21.149Z,10.66
2022-09-26T04:21:24.682Z,7.94
2022-09-26T04:23:31.058Z,10.59
2022-09-26T04:25:37.990Z,10.25
2022-09-26T04:27:42.176Z,10.34
2022-09-26T04:29:46.318Z,8.87
2022-09-26T04:32:03.727Z,10.51
2022-09-26T04:34:15.904Z,10.60
2022-09-26T04:36:19.531Z,10.60
2022-09-26T04:38:22.351Z,9.95
2022-09-26T04:40:25.163Z,10.61
2022-09-26T04:42:42.578Z,10.59
2022-09-26T04:44:48.208Z,7.54
2022-09-26T04:46:52.099Z,10.03
2022-09-26T04:49:00.053Z,10.57
2022-09-26T04:51:06.381Z,10.58
2022-09-26T04:53:09.254Z,10.52
2022-09-26T04:55:16.330Z,10.34
2022-09-26T04:57:20.047Z,10.36
2022-09-26T04:59:23.005Z,10.11
2022-09-26T05:01:40.053Z,10.12
2022-09-26T05:03:49.870Z,9.95
2022-09-26T05:05:54.508Z,9.67
2022-09-26T05:07:57.782Z,9.73
2022-09-26T05:10:00.792Z,9.95
2022-09-26T05:12:03.814Z,10.11
2022-09-26T05:14:08.912Z,10.16
2022-09-26T05:16:14.520Z,10.23
2022-09-26T05:18:19.087Z,10.28
2022-09-26T05:20:24.096Z,9.86
2022-09-26T05:22:36.419Z,9.18
2022-09-26T05:24:56.883Z,10.40
2022-09-26T05:27:01.576Z,10.41
2022-09-26T05:29:08.370Z,10.43
2022-09-26T05:31:26.370Z,10.44
2022-09-26T05:33:30.976Z,10.44
2022-09-26T05:35:35.467Z,5.33
2022-09-26T05:37:38.907Z,10.43
2022-09-26T05:39:59.837Z,10.39
2022-09-26T05:42:06.984Z,10.37
2022-09-26T05:44:10.676Z,9.25
2022-09-26T05:46:14.679Z,10.40
2022-09-26T05:48:23.344Z,10.53
2022-09-26T05:50:27.510Z,10.57
2022-09-26T05:52:31.062Z,9.06
2022-09-26T05:54:34.387Z,10.60
2022-09-26T05:56:43.972Z,10.62
2022-09-26T05:59:12.456Z,10.63
2022-09-26T06:01:35.076Z,10.70
2022-09-26T06:03:48.316Z,10.76
2022-09-26T06:06:04.688Z,10.60
2022-09-26T06:08:09.448Z,10.53
2022-09-26T06:10:20.310Z,8.92
2022-09-26T06:12:30.180Z,10.50
2022-09-26T06:14:33.115Z,10.60
2022-09-26T06:16:36.058Z,7.30
2022-09-26T06:18:40.820Z,10.49
2022-09-26T06:20:43.752Z,10.58
2022-09-26T06:22:49.438Z,10.68
2022-09-26T06:24:52.668Z,10.70
2022-09-26T06:26:56.157Z,10.77
2022-09-26T06:29:00.080Z,10.70
2022-09-26T06:31:10.759Z,10.76
2022-09-26T06:33:36.710Z,10.78
2022-09-26T06:36:01.964Z,10.84
2022-09-26T06:38:11.640Z,10.76
2022-09-26T06:40:16.403Z,10.09
2022-09-26T06:42:19.493Z,10.85
2022-09-26T06:44:31.331Z,8.96
2022-09-26T06:47:02.965Z,10.89
2022-09-26T06:49:10.887Z,10.99
2022-09-26T06:51:24.831Z,11.05
2022-09-26T06:53:30.840Z,11.09
2022-09-26T06:55:34.665Z,11.11
2022-09-26T06:57:40.329Z,11.11
2022-09-26T06:59:43.238Z,11.17
2022-09-26T07:02:07.371Z,10.55
2022-09-26T07:04:29.825Z,11.32
2022-09-26T07:06:50.987Z,11.38
2022-09-26T07:09:03.070Z,11.44
2022-09-26T07:11:56.619Z,11.55
2022-09-26T07:14:01.967Z,9.43
2022-09-26T07:16:05.802Z,11.71
2022-09-26T07:18:31.904Z,11.88
2022-09-26T07:20:56.675Z,11.87
2022-09-26T07:23:10.772Z,11.90
2022-09-26T07:25:15.704Z,11.88
2022-09-26T07:27:19.061Z,11.85
2022-09-26T07:29:23.164Z,11.53
2022-09-26T07:31:27.202Z,11.93
2022-09-26T07:33:49.953Z,11.34
2022-09-26T07:35:55.040Z,12.20
2022-09-26T07:37:59.034Z,12.24
2022-09-26T07:40:02.304Z,9.98
2022-09-26T07:42:09.697Z,12.35
2022-09-26T07:45:02.179Z,12.46
2022-09-26T07:46:54.119Z,12.44
2022-09-26T07:49:15.601Z,12.59
2022-09-26T07:51:39.070Z,12.68
2022-09-26T07:53:45.767Z,12.87
2022-09-26T07:56:07.249Z,12.22
2022-09-26T07:58:29.864Z,12.87
2022-09-26T08:01:12.047Z,12.86
2022-09-26T08:03:33.445Z,12.87
2022-09-26T08:05:40.074Z,12.94
2022-09-26T08:07:43.158Z,12.97
2022-09-26T08:09:50.625Z,13.09
2022-09-26T08:12:12.253Z,12.63
2022-09-26T08:14:49.121Z,12.55
2022-09-26T08:16:56.866Z,12.94
2022-09-26T08:19:01.687Z,12.44
2022-09-26T08:21:06.343Z,12.59
2022-09-26T08:23:09.213Z,12.83
2022-09-26T08:25:12.751Z,12.94
2022-09-26T08:27:32.388Z,10.51
2022-09-26T08:29:35.615Z,13.14
2022-09-26T08:31:40.458Z,13.11
2022-09-26T08:33:44.246Z,12.38
2022-09-26T08:35:48.658Z,12.44
2022-09-26T08:38:12.572Z,4.86
2022-09-26T08:40:15.416Z,12.63
2022-09-26T08:42:50.568Z,12.34
2022-09-26T08:45:38.125Z,10.28
2022-09-26T08:48:07.377Z,12.91
2022-09-26T08:50:23.620Z,13.10
2022-09-26T08:52:34.287Z,13.74
2022-09-26T08:54:40.923Z,14.00
2022-09-26T08:56:48.718Z,14.12
2022-09-26T08:58:55.549Z,14.39
2022-09-26T09:01:10.403Z,14.52
2022-09-26T09:03:36.989Z,14.31
2022-09-26T09:05:46.306Z,14.35
2022-09-26T09:07:51.860Z,14.52
2022-09-26T09:10:00.166Z,13.45
2022-09-26T09:12:24.397Z,14.63
2022-09-26T09:15:24.130Z,12.47
2022-09-26T09:17:48.481Z,12.21
2022-09-26T09:20:14.573Z,15.40
2022-09-26T09:23:14.725Z,15.55
2022-09-26T09:25:25.883Z,15.67
2022-09-26T09:28:02.498Z,15.68
2022-09-26T09:30:16.879Z,15.89
2022-09-26T09:32:42.073Z,16.14
2022-09-26T09:35:14.299Z,16.19
2022-09-26T09:37:51.972Z,16.47
2022-09-26T09:40:28.633Z,15.45
2022-09-26T09:42:40.337Z,16.86
2022-09-26T09:44:48.087Z,17.28
2022-09-26T09:46:52.329Z,16.75
2022-09-26T09:48:59.249Z,16.43
2022-09-26T09:51:18.814Z,16.16
2022-09-26T09:53:37.045Z,15.16
2022-09-26T09:55:49.643Z,16.02
2022-09-26T09:58:13.845Z,16.40
2022-09-26T10:00:18.763Z,17.11
2022-09-26T10:02:40.512Z,16.34
2022-09-26T10:05:06.218Z,16.06
2022-09-26T10:07:10.932Z,16.53
2022-09-26T10:09:38.983Z,16.75
2022-09-26T10:12:01.697Z,16.68
2022-09-26T10:14:42.584Z,17.18
2022-09-26T10:17:18.787Z,17.51
2022-09-26T10:19:45.112Z,16.69
2022-09-26T10:21:50.612Z,16.12
2022-09-26T10:23:55.508Z,17.00
2022-09-26T10:26:31.076Z,15.63
2022-09-26T10:28:37.760Z,16.76
2022-09-26T10:30:50.046Z,17.08
2022-09-26T10:33:00.226Z,16.12
2022-09-26T10:35:29.654Z,17.07
2022-09-26T10:37:32.688Z,17.14
2022-09-26T10:40:15.249Z,16.35
2022-09-26T10:42:21.196Z,16.61
2022-09-26T10:44:29.128Z,16.46
2022-09-26T10:46:59.218Z,16.25
2022-09-26T10:49:26.651Z,16.03
2022-09-26T10:51:54.538Z,16.06
2022-09-26T10:54:05.205Z,14.39
2022-09-26T10:56:12.896Z,15.05
2022-09-26T10:58:19.581Z,16.13
2022-09-26T11:00:37.779Z,16.54
2022-09-26T11:02:47.443Z,11.99
2022-09-26T11:05:15.038Z,16.88
2022-09-26T11:07:41.347Z,16.56
2022-09-26T11:10:02.231Z,16.32
2022-09-26T11:12:29.188Z,16.31
2022-09-26T11:14:45.781Z,14.17
2022-09-26T11:16:53.144Z,16.06
2022-09-26T11:19:02.971Z,15.37
2022-09-26T11:21:28.182Z,15.79
2022-09-26T11:23:39.601Z,15.74
2022-09-26T11:25:57.831Z,16.36
2022-09-26T11:28:09.547Z,16.47
2022-09-26T11:30:50.279Z,16.03
2022-09-26T11:33:00.954Z,15.59
2022-09-26T11:35:53.238Z,15.00
2022-09-26T11:38:11.100Z,15.25
2022-09-26T11:40:29.066Z,12.67
2022-09-26T11:42:45.015Z,15.06
2022-09-26T11:45:08.019Z,14.81
2022-09-26T11:48:03.003Z,14.64
2022-09-26T11:50:39.626Z,14.67
2022-09-26T11:53:06.259Z,14.12
2022-09-26T11:55:24.281Z,15.79
2022-09-26T11:57:39.020Z,16.31
2022-09-26T12:00:07.685Z,14.94
2022-09-26T12:02:37.249Z,15.06
2022-09-26T12:04:55.776Z,16.33
2022-09-26T12:07:08.222Z,15.71
2022-09-26T12:09:24.677Z,15.71
2022-09-26T12:11:37.288Z,15.66
2022-09-26T12:13:48.345Z,15.51
2022-09-26T12:15:59.391Z,12.75
2022-09-26T12:18:13.911Z,15.09
2022-09-26T12:20:27.636Z,15.03
2022-09-26T12:22:38.735Z,14.98
2022-09-26T12:24:49.641Z,14.39
2022-09-26T12:27:00.197Z,13.38
2022-09-26T12:29:24.282Z,12.99
2022-09-26T12:31:42.190Z,9.98
2022-09-26T12:34:17.077Z,14.21
2022-09-26T12:36:40.523Z,13.40
2022-09-26T12:38:58.053Z,13.10
2022-09-26T12:41:25.206Z,12.87
2022-09-26T12:44:00.015Z,12.91
2022-09-26T12:46:28.245Z,12.65
2022-09-26T12:49:04.222Z,13.12
2022-09-26T12:51:19.948Z,13.02
2022-09-26T12:53:38.216Z,13.22
2022-09-26T12:55:49.027Z,12.92
2022-09-26T12:58:05.964Z,13.01
2022-09-26T13:00:20.151Z,13.30
2022-09-26T13:02:47.115Z,12.65
2022-09-26T13:05:18.825Z,13.26
2022-09-26T13:07:42.206Z,13.40
2022-09-26T13:10:15.445Z,13.59
2022-09-26T13:12:35.472Z,13.72
2022-09-26T13:14:57.083Z,10.45
2022-09-26T13:17:10.860Z,13.41
2022-09-26T13:19:24.056Z,13.42
2022-09-26T13:21:45.460Z,13.50
2022-09-26T13:23:54.020Z,5.04
2022-09-26T13:26:00.808Z,14.23
2022-09-26T13:28:09.591Z,12.74
2022-09-26T13:30:17.019Z,14.62
2022-09-26T13:32:24.665Z,14.70
2022-09-26T13:34:32.216Z,15.13
2022-09-26T13:36:41.767Z,12.82
2022-09-26T13:38:53.036Z,14.35
2022-09-26T13:41:05.251Z,7.85
2022-09-26T13:43:21.655Z,12.22
2022-09-26T13:45:36.320Z,14.06
2022-09-26T13:47:59.926Z,13.28
2022-09-26T13:50:18.366Z,12.95
2022-09-26T13:52:44.604Z,14.31
2022-09-26T13:55:00.306Z,13.21
2022-09-26T13:57:32.678Z,14.91
2022-09-26T13:59:54.369Z,14.51
2022-09-26T14:02:20.445Z,14.34
2022-09-26T14:04:34.588Z,11.56
2022-09-26T14:06:37.524Z,13.81
2022-09-26T14:09:25.107Z,14.33
2022-09-26T14:11:46.044Z,14.32
2022-09-26T14:13:49.952Z,14.46
2022-09-26T14:16:06.353Z,14.40
2022-09-26T14:18:30.293Z,14.40
2022-09-26T14:20:40.514Z,14.36
2022-09-26T14:22:51.669Z,14.28
2022-09-26T14:24:57.417Z,6.04
2022-09-26T14:27:39.412Z,9.10
2022-09-26T14:29:50.507Z,13.52
2022-09-26T14:32:01.988Z,13.79
2022-09-26T14:34:14.506Z,13.76
2022-09-26T14:36:24.387Z,13.79
2022-09-26T14:38:27.180Z,13.82
2022-09-26T14:40:34.309Z,13.88
2022-09-26T14:42:40.812Z,13.99
2022-09-26T14:44:52.260Z,12.93
2022-09-26T14:46:56.986Z,13.79
2022-09-26T14:49:03.244Z,13.71
2022-09-26T14:51:28.498Z,13.75
2022-09-26T14:53:39.582Z,13.65
2022-09-26T14:55:57.834Z,12.81
2022-09-26T14:58:32.097Z,13.65
2022-09-26T15:00:39.404Z,6.18
2022-09-26T15:02:44.638Z,12.73
2022-09-26T15:04:51.546Z,13.65
2022-09-26T15:06:57.862Z,13.60
2022-09-26T15:09:10.400Z,13.73
2022-09-26T15:11:29.168Z,13.62
2022-09-26T15:13:37.945Z,13.61
2022-09-26T15:15:49.572Z,12.03
2022-09-26T15:17:57.471Z,13.31
2022-09-26T15:20:03.817Z,13.48
2022-09-26T15:22:13.459Z,12.93
2022-09-26T15:24:29.554Z,13.71
2022-09-26T15:26:37.081Z,12.55
2022-09-26T15:28:40.330Z,13.49
2022-09-26T15:30:45.138Z,12.02
2022-09-26T15:32:53.134Z,13.05
2022-09-26T15:34:57.145Z,13.20
2022-09-26T15:37:02.311Z,12.80
2022-09-26T15:39:35.545Z,12.47
2022-09-26T15:42:03.087Z,13.01
2022-09-26T15:44:09.950Z,13.05
2022-09-26T15:46:23.493Z,13.22
2022-09-26T15:48:31.035Z,13.31
2022-09-26T15:50:41.453Z,11.38
2022-09-26T15:52:50.435Z,11.32
2022-09-26T15:54:54.640Z,12.74
2022-09-26T15:57:03.006Z,12.86
2022-09-26T15:59:12.169Z,13.00
2022-09-26T16:01:17.543Z,13.05
2022-09-26T16:03:37.133Z,12.98
2022-09-26T16:05:40.014Z,13.06
2022-09-26T16:07:49.624Z,11.54
2022-09-26T16:09:52.790Z,12.59
2022-09-26T16:11:58.794Z,13.24
2022-09-26T16:14:03.429Z,13.39
2022-09-26T16:16:09.459Z,13.35
2022-09-26T16:18:26.437Z,13.30
2022-09-26T16:20:31.134Z,12.47
2022-09-26T16:22:44.617Z,11.95
2022-09-26T16:24:47.598Z,13.30
2022-09-26T16:26:53.641Z,13.38
2022-09-26T16:28:57.936Z,13.25
2022-09-26T16:31:16.053Z,13.10
2022-09-26T16:33:31.124Z,13.07
2022-09-26T16:35:35.966Z,13.17
2022-09-26T16:37:38.980Z,13.13
2022-09-26T16:39:42.323Z,13.05
2022-09-26T16:42:01.325Z,10.65
2022-09-26T16:44:10.498Z,12.24
2022-09-26T16:46:18.358Z,12.99
2022-09-26T16:48:39.317Z,12.56
2022-09-26T16:50:42.433Z,13.07
2022-09-26T16:52:45.927Z,13.08
2022-09-26T16:54:48.966Z,13.04
2022-09-26T16:56:52.712Z,13.03
2022-09-26T16:58:58.610Z,13.09
2022-09-26T17:01:19.080Z,12.51
2022-09-26T17:03:26.657Z,13.07
2022-09-26T17:05:29.649Z,13.07
2022-09-26T17:07:32.471Z,12.95
2022-09-26T17:09:35.327Z,13.01
2022-09-26T17:11:38.178Z,12.96
2022-09-26T17:13:42.455Z,11.57
2022-09-26T17:15:48.541Z,12.83
2022-09-26T17:17:54.178Z,11.36
2022-09-26T17:19:59.812Z,12.97
2022-09-26T17:22:02.688Z,12.12
2022-09-26T17:24:07.199Z,12.90
2022-09-26T17:26:18.100Z,9.99
2022-09-26T17:28:27.276Z,12.89
2022-09-26T17:30:30.173Z,12.86
2022-09-26T17:32:35.788Z,10.91
2022-09-26T17:34:38.719Z,12.82
2022-09-26T17:36:47.403Z,12.78
2022-09-26T17:38:50.610Z,10.00
2022-09-26T17:40:53.566Z,12.74
2022-09-26T17:42:59.222Z,12.16
2022-09-26T17:45:02.067Z,12.09
2022-09-26T17:47:07.189Z,12.83
2022-09-26T17:49:16.777Z,11.74
2022-09-26T17:51:21.711Z,12.75
2022-09-26T17:53:28.123Z,12.76
2022-09-26T17:55:32.033Z,2.99
2022-09-26T17:57:40.822Z,12.65
2022-09-26T17:59:44.842Z,12.68
2022-09-26T18:01:52.349Z,12.76
2022-09-26T18:03:59.765Z,12.69
2022-09-26T18:06:03.290Z,9.03
2022-09-26T18:08:15.195Z,12.72
2022-09-26T18:10:23.754Z,9.59
2022-09-26T18:12:26.851Z,8.51
2022-09-26T18:14:32.103Z,11.69
2022-09-26T18:16:35.242Z,11.97
2022-09-26T18:18:38.112Z,12.83
2022-09-26T18:20:41.995Z,10.31
2022-09-26T18:22:46.994Z,12.85
2022-09-26T18:24:52.734Z,11.21
2022-09-26T18:27:03.633Z,7.45
2022-09-26T18:29:08.135Z,11.39
2022-09-26T18:31:12.376Z,12.75
2022-09-26T18:33:16.670Z,12.29
2022-09-26T18:35:24.066Z,10.90
2022-09-26T18:37:27.209Z,12.65
2022-09-26T18:39:30.576Z,12.61
2022-09-26T18:41:35.267Z,12.66
2022-09-26T18:43:42.308Z,11.54
2022-09-26T18:45:45.280Z,9.84
2022-09-26T18:47:48.350Z,10.93
2022-09-26T18:49:51.258Z,9.87
2022-09-26T18:51:54.251Z,12.56
2022-09-26T18:53:57.110Z,12.58
2022-09-26T18:56:17.105Z,12.59
2022-09-26T18:58:25.222Z,12.65
2022-09-26T19:00:29.646Z,12.66
2022-09-26T19:02:38.261Z,10.44
2022-09-26T19:04:41.298Z,12.55
2022-09-26T19:06:46.917Z,11.77
2022-09-26T19:08:51.602Z,11.32
2022-09-26T19:10:55.199Z,9.92
2022-09-26T19:12:59.035Z,12.47
2022-09-26T19:15:01.816Z,12.42
2022-09-26T19:17:06.056Z,12.27
2022-09-26T19:19:08.910Z,12.32
2022-09-26T19:21:19.963Z,8.53
2022-09-26T19:23:23.201Z,12.39
2022-09-26T19:25:26.512Z,12.27
2022-09-26T19:27:33.144Z,8.04
2022-09-26T19:29:39.601Z,10.62
2022-09-26T19:31:43.605Z,12.25
2022-09-26T19:33:49.898Z,11.00
2022-09-26T19:35:53.077Z,12.22
2022-09-26T19:37:56.135Z,9.92
2022-09-26T19:39:59.000Z,11.21
2022-09-26T19:42:06.551Z,6.19
2022-09-26T19:44:09.524Z,8.42
2022-09-26T19:46:18.385Z,11.03
2022-09-26T19:48:23.964Z,11.99
2022-09-26T19:50:29.087Z,12.00
2022-09-26T19:52:32.525Z,9.60
2022-09-26T19:54:35.938Z,11.95
2022-09-26T19:56:38.748Z,5.18
2022-09-26T19:58:41.597Z,11.95
2022-09-26T20:00:44.798Z,11.95
2022-09-26T20:02:51.327Z,10.52
2022-09-26T20:04:54.211Z,10.58
2022-09-26T20:06:58.456Z,11.84
2022-09-26T20:09:02.011Z,8.76
2022-09-26T20:11:05.135Z,11.65
2022-09-26T20:13:08.012Z,10.41
2022-09-26T20:15:12.969Z,11.63
2022-09-26T20:17:22.075Z,3.31
2022-09-26T20:19:37.559Z,11.41
2022-09-26T20:21:40.354Z,11.28
2022-09-26T20:23:45.933Z,11.28
2022-09-26T20:25:48.938Z,11.33
2022-09-26T20:27:55.150Z,7.91
2022-09-26T20:30:16.797Z,10.26
2022-09-26T20:32:20.172Z,11.16
2022-09-26T20:34:23.049Z,11.19
2022-09-26T20:36:30.372Z,7.72
2022-09-26T20:38:38.734Z,10.24
2022-09-26T20:40:42.990Z,10.97
2022-09-26T20:42:48.561Z,10.94
2022-09-26T20:44:51.438Z,10.95
2022-09-26T20:46:58.933Z,10.98
2022-09-26T20:49:04.271Z,10.97
2022-09-26T20:51:10.437Z,10.92
2022-09-26T20:53:17.794Z,10.92
2022-09-26T20:55:21.080Z,8.68
2022-09-26T20:57:26.262Z,10.93
2022-09-26T20:59:29.346Z,9.73
2022-09-26T21:01:32.212Z,9.58
2022-09-26T21:03:35.125Z,10.66
2022-09-26T21:05:38.515Z,10.87
2022-09-26T21:07:41.618Z,10.68
2022-09-26T21:09:44.969Z,10.60
2022-09-26T21:11:49.110Z,9.08
2022-09-26T21:13:53.276Z,10.55
2022-09-26T21:15:56.055Z,9.98
2022-09-26T21:17:59.662Z,7.74
2022-09-26T21:20:03.168Z,10.74
2022-09-26T21:22:41.818Z,10.58
2022-09-26T21:24:49.095Z,9.23
2022-09-26T21:26:51.965Z,10.49
2022-09-26T21:28:56.868Z,10.40
2022-09-26T21:31:04.011Z,10.39
2022-09-26T21:33:07.049Z,10.46
2022-09-26T21:35:10.865Z,10.47
2022-09-26T21:37:13.701Z,5.30
2022-09-26T21:39:18.881Z,10.42
2022-09-26T21:41:22.051Z,10.39
2022-09-26T21:43:29.091Z,10.43
2022-09-26T21:45:33.803Z,8.21
2022-09-26T21:47:37.534Z,9.94
2022-09-26T21:49:40.592Z,8.70
2022-09-26T21:51:45.267Z,8.52
2022-09-26T21:53:54.187Z,10.31
2022-09-26T21:56:05.104Z,8.57
2022-09-26T21:58:13.713Z,9.43
2022-09-26T22:00:16.883Z,10.12
2022-09-26T22:02:21.553Z,9.39
2022-09-26T22:04:24.466Z,10.20
2022-09-26T22:06:27.339Z,9.73
2022-09-26T22:08:30.968Z,10.11
2022-09-26T22:10:34.032Z,5.45
2022-09-26T22:12:36.928Z,9.89
2022-09-26T22:14:39.903Z,10.02
2022-09-26T22:16:42.882Z,9.13
2022-09-26T22:18:47.211Z,7.51
2022-09-26T22:20:55.531Z,7.58
2022-09-26T22:22:58.356Z,6.30
2022-09-26T22:25:04.037Z,9.95
2022-09-26T22:27:06.891Z,7.91
2022-09-26T22:29:09.827Z,7.24
2022-09-26T22:31:13.662Z,7.42
2022-09-26T22:33:18.637Z,8.13
2022-09-26T22:35:23.056Z,8.15
2022-09-26T22:37:26.122Z,9.89
2022-09-26T22:39:29.197Z,9.90
2022-09-26T22:41:32.060Z,5.32
2022-09-26T22:43:35.923Z,9.83
2022-09-26T22:45:38.732Z,9.65
2022-09-26T22:47:41.812Z,9.71
2022-09-26T22:49:44.657Z,9.73
2022-09-26T22:51:48.869Z,9.07
2022-09-26T22:53:51.660Z,9.78
2022-09-26T22:55:55.717Z,9.74
2022-09-26T22:57:58.622Z,7.16
2022-09-26T23:00:01.905Z,9.81
2022-09-26T23:02:04.945Z,7.87
2022-09-26T23:04:07.782Z,9.93
2022-09-26T23:06:11.220Z,8.05
2022-09-26T23:08:15.419Z,9.93
2022-09-26T23:10:22.052Z,9.99
2022-09-26T23:12:25.022Z,9.93
2022-09-26T23:14:27.804Z,9.93
2022-09-26T23:16:30.693Z,9.92
2022-09-26T23:18:34.668Z,8.96
2022-09-26T23:20:39.164Z,7.28
2022-09-26T23:22:42.031Z,9.92
2022-09-26T23:24:46.333Z,5.31
2022-09-26T23:26:49.181Z,9.91
2022-09-26T23:28:53.754Z,9.88
2022-09-26T23:31:04.341Z,9.88
2022-09-26T23:33:07.791Z,9.90
2022-09-26T23:35:10.726Z,9.86
2022-09-26T23:37:13.677Z,8.83
2022-09-26T23:39:16.724Z,9.62
2022-09-26T23:41:21.260Z,9.74
2022-09-26T23:43:24.273Z,9.68
2022-09-26T23:45:27.798Z,9.51
2022-09-26T23:47:31.001Z,9.55
2022-09-26T23:49:33.831Z,6.96
2022-09-26T23:51:36.620Z,-0.23
2022-09-26T23:53:39.477Z,9.52
2022-09-26T23:55:42.485Z,9.59
2022-09-26T23:57:46.643Z,9.61
2022-09-26T23:59:49.564Z,9.65
